createdAt,value
2019-01-24T00:01:42.576Z,96707.36
2019-01-24T00:04:16.751Z,96709.92
2019-01-24T00:06:44.771Z,96707.22
2019-01-24T00:09:54.660Z,96707.99
2019-01-24T00:12:25.010Z,96710.15
2019-01-24T00:17:51.162Z,96717.59
2019-01-24T00:20:22.753Z,96718.77
2019-01-24T00:22:53.346Z,96723.05
2019-01-24T00:25:23.601Z,96725.92
2019-01-24T00:28:12.800Z,96727.94
2019-01-24T00:31:04.129Z,96726.45
2019-01-24T00:33:34.313Z,96733.92
2019-01-24T00:36:24.264Z,96741.47
2019-01-24T00:39:15.260Z,96739.95
2019-01-24T00:41:46.405Z,96736.38
2019-01-24T00:47:29.996Z,96745.08
2019-01-24T00:50:19.533Z,96752.89
2019-01-24T00:52:49.829Z,96757.88
2019-01-24T00:55:39.274Z,96766.44
2019-01-24T00:58:28.546Z,96759.16
2019-01-24T01:01:18.032Z,96766.81
2019-01-24T01:03:48.285Z,96766.95
2019-01-24T01:06:18.534Z,96765.94
2019-01-24T01:22:39.608Z,96784.75
2019-01-24T01:25:28.825Z,96781.91
2019-01-24T01:34:20.302Z,96800.87
2019-01-24T01:42:57.543Z,96808.06
2019-01-24T01:45:46.943Z,96814.97
2019-01-24T01:48:36.689Z,96808.91
2019-01-24T01:51:26.373Z,96818.94
2019-01-24T01:54:15.605Z,96824.47
2019-01-24T01:56:45.960Z,96820.63
2019-01-24T01:59:16.456Z,96818.61
2019-01-24T02:01:46.612Z,96826.22
2019-01-24T02:04:16.799Z,96824.06
2019-01-24T02:06:47.060Z,96831.22
2019-01-24T02:09:17.329Z,96830.66
2019-01-24T02:11:47.649Z,96829.78
2019-01-24T02:14:18.094Z,96831.25
2019-01-24T02:16:48.435Z,96840.82
2019-01-24T02:19:18.607Z,96842.58
2019-01-24T02:21:50.235Z,96842.10
2019-01-24T02:24:20.417Z,96847.63
2019-01-24T02:27:09.755Z,96845.55
2019-01-24T02:29:40.297Z,96848.70
2019-01-24T02:32:29.604Z,96852.28
2019-01-24T02:34:59.810Z,96855.59
2019-01-24T02:37:49.050Z,96855.50
2019-01-24T02:40:19.558Z,96834.49
2019-01-24T02:43:09.140Z,96859.84
2019-01-24T02:45:39.328Z,96865.16
2019-01-24T02:48:09.752Z,96866.91
2019-01-24T02:50:40.223Z,96866.91
2019-01-24T02:53:29.497Z,96866.13
2019-01-24T02:56:19.040Z,96871.00
2019-01-24T02:58:49.358Z,96872.74
2019-01-24T03:01:19.550Z,96880.71
2019-01-24T03:04:08.822Z,96869.37
2019-01-24T03:06:58.056Z,96871.91
2019-01-24T03:09:48.173Z,96876.65
2019-01-24T03:12:37.390Z,96877.68
2019-01-24T03:15:08.558Z,96887.30
2019-01-24T03:17:39.015Z,96886.05
2019-01-24T03:20:29.941Z,96891.73
2019-01-24T03:23:00.187Z,96896.86
2019-01-24T03:25:49.486Z,96893.52
2019-01-24T03:28:19.720Z,96895.32
2019-01-24T03:30:50.008Z,96897.23
2019-01-24T03:33:20.979Z,96897.53
2019-01-24T03:35:51.219Z,96900.88
2019-01-24T03:38:21.404Z,96904.75
2019-01-24T03:41:10.658Z,96906.59
2019-01-24T03:43:40.833Z,96914.03
2019-01-24T03:46:30.092Z,96910.69
2019-01-24T03:49:19.263Z,96910.25
2019-01-24T03:52:08.831Z,96913.00
2019-01-24T03:54:39.076Z,96913.55
2019-01-24T03:57:28.595Z,96915.92
2019-01-24T04:00:21.813Z,96915.56
2019-01-24T04:03:11.363Z,96910.98
2019-01-24T04:05:41.587Z,96886.13
2019-01-24T04:08:11.909Z,96916.02
2019-01-24T04:11:01.262Z,96917.01
2019-01-24T04:13:31.521Z,96923.09
2019-01-24T04:16:12.958Z,96927.28
2019-01-24T04:18:54.713Z,96754.95
2019-01-24T04:21:25.004Z,96922.48
2019-01-24T04:23:55.225Z,96929.45
2019-01-24T04:26:44.530Z,96931.46
2019-01-24T04:29:14.716Z,96850.23
2019-01-24T04:31:44.967Z,96930.53
2019-01-24T04:34:27.897Z,96935.28
2019-01-24T04:39:45.210Z,96939.64
2019-01-24T04:42:15.445Z,96938.19
2019-01-24T04:45:05.977Z,96948.16
2019-01-24T04:47:55.376Z,96946.80
2019-01-24T04:50:25.817Z,96957.20
2019-01-24T04:52:56.453Z,96955.17
2019-01-24T04:55:26.695Z,96959.77
2019-01-24T04:58:15.904Z,96968.49
2019-01-24T05:00:46.462Z,96969.42
2019-01-24T05:06:25.039Z,96979.56
2019-01-24T05:09:14.295Z,96972.64
2019-01-24T05:11:44.537Z,96976.98
2019-01-24T05:14:15.098Z,96978.53
2019-01-24T05:16:45.345Z,96989.66
2019-01-24T05:19:15.564Z,96999.43
2019-01-24T05:21:48.400Z,97001.12
2019-01-24T05:24:40.200Z,97010.24
2019-01-24T05:27:30.813Z,97008.39
2019-01-24T05:30:24.796Z,97002.94
2019-01-24T05:33:20.538Z,97009.36
2019-01-24T05:35:51.673Z,97017.56
2019-01-24T05:38:22.205Z,97021.34
2019-01-24T05:40:53.601Z,97027.41
2019-01-24T05:43:43.139Z,97024.64
2019-01-24T05:46:32.980Z,97021.86
2019-01-24T05:49:22.535Z,97025.34
2019-01-24T05:51:52.889Z,97029.97
2019-01-24T05:54:42.466Z,97034.20
2019-01-24T05:57:31.777Z,97043.27
2019-01-24T06:00:02.059Z,97041.55
2019-01-24T06:02:43.677Z,97047.48
2019-01-24T06:08:08.817Z,97053.53
2019-01-24T06:10:56.130Z,97039.17
2019-01-24T06:13:16.156Z,97059.53
2019-01-24T06:15:46.737Z,97058.75
2019-01-24T06:18:17.677Z,97057.13
2019-01-24T06:20:48.450Z,97056.30
2019-01-24T06:23:19.002Z,97052.05
2019-01-24T06:25:50.027Z,97064.98
2019-01-24T06:28:20.747Z,97067.55
2019-01-24T06:31:10.120Z,97064.70
2019-01-24T06:33:40.406Z,97068.94
2019-01-24T06:36:10.937Z,97070.44
2019-01-24T06:39:00.174Z,97079.20
2019-01-24T06:41:50.899Z,97082.44
2019-01-24T06:44:40.554Z,97085.14
2019-01-24T06:47:22.011Z,97086.68
2019-01-24T06:50:05.129Z,97088.70
2019-01-24T06:55:29.678Z,96927.06
2019-01-24T06:58:00.267Z,97077.04
2019-01-24T07:00:30.501Z,97102.27
2019-01-24T07:03:00.892Z,97097.86
2019-01-24T07:05:31.133Z,97104.67
2019-01-24T07:08:20.365Z,97102.65
2019-01-24T07:11:09.584Z,97106.51
2019-01-24T07:13:40.142Z,97113.91
2019-01-24T07:16:21.492Z,97123.22
2019-01-24T07:19:02.999Z,97127.63
2019-01-24T07:21:35.288Z,97132.46
2019-01-24T07:24:26.067Z,97133.45
2019-01-24T07:26:56.382Z,97147.08
2019-01-24T07:29:28.355Z,97134.53
2019-01-24T07:32:41.560Z,97144.00
2019-01-24T07:35:14.059Z,97146.97
2019-01-24T07:38:03.664Z,97142.91
2019-01-24T07:40:33.938Z,97151.94
2019-01-24T07:43:25.663Z,97156.11
2019-01-24T07:46:14.938Z,97155.42
2019-01-24T07:49:06.274Z,97153.70
2019-01-24T07:51:55.782Z,97158.31
2019-01-24T07:54:45.048Z,97160.72
2019-01-24T07:57:15.377Z,97164.77
2019-01-24T07:59:47.365Z,97171.32
2019-01-24T08:02:36.575Z,97179.28
2019-01-24T08:05:10.582Z,97180.36
2019-01-24T08:08:00.363Z,97189.58
2019-01-24T08:10:33.078Z,97193.39
2019-01-24T08:13:03.371Z,97202.55
2019-01-24T08:15:53.098Z,97201.94
2019-01-24T08:18:23.554Z,97203.60
2019-01-24T08:21:12.747Z,97195.25
2019-01-24T08:23:43.023Z,97201.36
2019-01-24T08:26:13.326Z,97202.86
2019-01-24T08:31:43.640Z,97209.52
2019-01-24T08:34:13.945Z,97215.43
2019-01-24T08:36:46.843Z,97213.08
2019-01-24T08:39:36.106Z,97214.73
2019-01-24T08:42:25.614Z,97216.16
2019-01-24T08:45:06.997Z,97209.62
2019-01-24T08:47:37.416Z,97217.20
2019-01-24T08:50:28.060Z,97222.62
2019-01-24T08:53:17.336Z,97226.36
2019-01-24T08:55:49.401Z,97233.05
2019-01-24T08:58:42.095Z,97225.69
2019-01-24T09:01:12.542Z,97228.55
2019-01-24T09:06:53.164Z,97224.66
2019-01-24T09:09:26.147Z,97225.09
2019-01-24T09:11:58.698Z,97225.77
2019-01-24T09:14:28.911Z,97234.75
2019-01-24T09:16:59.341Z,97231.67
2019-01-24T09:19:29.549Z,97237.52
2019-01-24T09:22:00.846Z,97235.03
2019-01-24T09:25:10.692Z,97238.48
2019-01-24T09:28:20.246Z,97239.17
2019-01-24T09:31:18.141Z,97240.48
2019-01-24T09:33:48.354Z,97234.56
2019-01-24T09:36:19.236Z,97246.00
2019-01-24T09:38:53.916Z,97250.97
2019-01-24T09:41:43.174Z,97259.16
2019-01-24T09:44:13.497Z,97261.55
2019-01-24T09:47:05.544Z,97264.49
2019-01-24T09:49:59.902Z,97265.17
2019-01-24T09:52:51.765Z,97272.22
2019-01-24T09:55:22.190Z,97286.42
2019-01-24T09:57:52.379Z,97293.22
2019-01-24T10:00:41.765Z,97287.40
2019-01-24T10:03:33.907Z,97284.20
2019-01-24T10:06:04.192Z,97289.38
2019-01-24T10:08:37.918Z,97298.19
2019-01-24T10:11:08.264Z,97295.47
2019-01-24T10:13:38.527Z,97301.49
2019-01-24T10:16:10.357Z,97300.42
2019-01-24T10:18:40.572Z,97309.03
2019-01-24T10:21:34.336Z,97308.71
2019-01-24T10:24:04.666Z,97311.61
2019-01-24T10:26:53.953Z,97312.76
2019-01-24T10:29:36.098Z,97313.44
2019-01-24T10:32:07.309Z,97312.41
2019-01-24T10:34:38.854Z,97305.88
2019-01-24T10:37:30.583Z,97310.67
2019-01-24T10:40:21.353Z,97309.09
2019-01-24T10:43:13.173Z,97303.05
2019-01-24T10:45:43.446Z,97307.79
2019-01-24T10:48:14.102Z,97305.48
2019-01-24T10:51:03.496Z,97306.57
2019-01-24T10:53:55.991Z,97311.01
2019-01-24T10:56:45.312Z,97318.19
2019-01-24T10:59:39.311Z,97182.01
2019-01-24T11:05:10.685Z,97325.93
2019-01-24T11:07:41.446Z,97327.12
2019-01-24T11:13:10.477Z,97329.78
2019-01-24T11:15:41.001Z,97330.03
2019-01-24T11:18:30.340Z,97329.88
2019-01-24T11:21:01.222Z,97332.75
2019-01-24T11:23:31.940Z,97340.72
2019-01-24T11:26:02.266Z,97337.87
2019-01-24T11:31:30.700Z,97335.48
2019-01-24T11:34:06.693Z,97333.88
2019-01-24T11:36:59.390Z,97331.41
2019-01-24T11:39:52.277Z,97325.48
2019-01-24T11:42:30.931Z,97307.88
2019-01-24T11:45:21.798Z,97321.00
2019-01-24T11:48:11.911Z,97326.56
2019-01-24T11:51:09.360Z,97320.19
2019-01-24T11:54:13.700Z,97321.69
2019-01-24T11:56:36.130Z,97327.22
2019-01-24T11:59:07.185Z,97319.82
2019-01-24T12:01:59.401Z,97320.16
2019-01-24T12:04:48.653Z,97325.27
2019-01-24T12:17:14.322Z,97207.69
2019-01-24T12:19:55.348Z,97320.50
2019-01-24T12:25:54.571Z,97323.30
2019-01-24T12:28:50.031Z,97326.42
2019-01-24T12:31:22.510Z,97331.81
2019-01-24T12:34:13.924Z,97337.16
2019-01-24T12:36:44.240Z,97326.51
2019-01-24T12:39:47.381Z,97328.73
2019-01-24T12:45:52.946Z,97332.03
2019-01-24T12:48:49.867Z,97336.34
2019-01-24T12:54:43.120Z,97330.80
2019-01-24T12:57:14.370Z,97333.30
2019-01-24T12:59:48.740Z,97329.86
2019-01-24T13:02:39.792Z,97328.64
2019-01-24T13:05:31.823Z,97331.02
2019-01-24T13:08:23.991Z,97337.70
2019-01-24T13:10:57.341Z,97337.61
2019-01-24T13:13:28.361Z,97334.13
2019-01-24T13:16:36.949Z,97339.15
2019-01-24T13:19:26.567Z,97340.69
2019-01-24T13:22:16.306Z,97342.81
2019-01-24T13:24:49.260Z,97340.06
2019-01-24T13:27:41.055Z,97345.13
2019-01-24T13:30:33.692Z,97344.65
2019-01-24T13:39:17.982Z,97350.64
2019-01-24T13:44:44.205Z,97353.96
2019-01-24T13:48:05.272Z,97354.41
2019-01-24T13:50:09.015Z,97364.87
2019-01-24T13:53:00.238Z,97362.02
2019-01-24T14:05:25.702Z,97376.12
2019-01-24T14:07:56.434Z,97389.77
2019-01-24T14:39:12.045Z,97413.94
2019-01-24T14:42:15.751Z,97422.95
2019-01-24T14:44:58.045Z,97417.95
2019-01-24T14:47:30.565Z,97424.02
2019-01-24T14:50:21.067Z,97420.81
2019-01-24T14:52:53.130Z,97432.97
2019-01-24T14:59:05.781Z,97438.66
2019-01-24T15:01:36.681Z,97444.55
2019-01-24T15:04:35.147Z,97443.01
2019-01-24T15:07:05.826Z,97444.82
2019-01-24T15:09:55.643Z,97448.50
2019-01-24T15:12:45.007Z,97318.70
2019-01-24T15:15:24.310Z,97452.84
2019-01-24T15:17:54.701Z,97452.17
2019-01-24T15:20:29.298Z,97450.86
2019-01-24T15:23:06.343Z,97450.42
2019-01-24T15:25:38.797Z,97444.53
2019-01-24T15:28:28.317Z,97453.06
2019-01-24T15:31:00.509Z,97457.13
2019-01-24T15:33:32.526Z,97452.86
2019-01-24T15:36:24.336Z,97455.22
2019-01-24T15:38:55.120Z,97455.37
2019-01-24T15:41:25.484Z,97454.58
2019-01-24T15:44:18.014Z,97452.37
2019-01-24T15:46:48.392Z,97453.29
2019-01-24T15:52:47.901Z,97452.52
2019-01-24T15:55:41.117Z,97458.71
2019-01-24T15:58:30.833Z,97460.93
2019-01-24T16:01:04.951Z,97467.95
2019-01-24T16:03:35.315Z,97476.52
2019-01-24T16:06:06.204Z,97477.38
2019-01-24T16:08:57.262Z,97477.08
2019-01-24T16:11:49.959Z,97481.86
2019-01-24T16:14:26.070Z,97487.99
2019-01-24T16:16:56.595Z,97493.19
2019-01-24T16:19:30.443Z,97499.09
2019-01-24T16:22:11.991Z,97498.91
2019-01-24T16:24:45.357Z,97502.58
2019-01-24T16:28:09.015Z,97507.28
2019-01-24T16:30:46.310Z,97509.71
2019-01-24T16:33:35.773Z,97514.05
2019-01-24T16:36:06.307Z,97514.59
2019-01-24T16:38:48.533Z,97513.08
2019-01-24T16:41:22.068Z,97522.65
2019-01-24T16:43:53.754Z,97524.36
2019-01-24T16:46:43.213Z,97526.99
2019-01-24T16:49:32.644Z,97371.89
2019-01-24T16:52:26.351Z,97531.57
2019-01-24T17:02:02.013Z,97395.91
2019-01-24T17:04:32.586Z,97541.98
2019-01-24T17:07:22.192Z,97548.59
2019-01-24T17:10:12.666Z,97550.86
2019-01-24T17:13:02.270Z,97551.35
2019-01-24T17:15:33.577Z,97554.83
2019-01-24T17:18:44.853Z,97559.34
2019-01-24T17:21:34.313Z,97561.19
2019-01-24T17:24:05.524Z,97574.53
2019-01-24T17:29:46.872Z,97570.50
2019-01-24T17:32:40.513Z,97579.92
2019-01-24T17:35:30.105Z,97584.24
2019-01-24T17:38:23.965Z,97595.03
2019-01-24T17:40:54.248Z,97599.80
2019-01-24T17:43:47.535Z,97598.95
2019-01-24T17:46:17.903Z,97600.28
2019-01-24T17:49:11.002Z,97608.65
2019-01-24T17:52:02.472Z,97608.33
2019-01-24T17:54:52.586Z,97609.98
2019-01-24T17:57:22.935Z,97613.88
2019-01-24T17:59:59.425Z,97622.80
2019-01-24T18:02:50.123Z,97624.63
2019-01-24T18:05:35.774Z,97629.33
2019-01-24T18:07:56.251Z,97626.94
2019-01-24T18:10:46.195Z,97629.94
2019-01-24T18:13:21.251Z,97627.26
2019-01-24T18:16:12.926Z,97631.64
2019-01-24T18:19:33.662Z,97635.08
2019-01-24T18:22:12.350Z,97636.88
2019-01-24T18:25:38.224Z,97642.31
2019-01-24T18:28:17.858Z,97636.84
2019-01-24T18:34:27.038Z,97646.34
2019-01-24T18:36:57.777Z,97648.58
2019-01-24T18:39:31.270Z,97649.88
2019-01-24T18:42:01.963Z,97651.27
2019-01-24T18:44:54.749Z,97648.32
2019-01-24T18:47:45.748Z,97655.27
2019-01-24T18:50:25.156Z,97657.51
2019-01-24T18:52:59.087Z,97652.86
2019-01-24T18:55:50.535Z,97659.31
2019-01-24T19:01:20.686Z,97611.57
2019-01-24T19:03:56.551Z,97666.95
2019-01-24T19:18:40.651Z,97668.61
2019-01-24T19:27:32.329Z,97680.39
2019-01-24T19:33:32.373Z,97688.03
2019-01-24T19:36:16.756Z,97685.48
2019-01-24T19:39:02.810Z,97688.41
2019-01-24T19:44:05.275Z,97693.91
2019-01-24T19:50:17.294Z,97699.61
2019-01-24T19:53:08.439Z,97711.62
2019-01-24T19:56:04.399Z,97706.98
2019-01-24T19:58:37.216Z,97706.70
2019-01-24T20:01:15.653Z,97708.03
2019-01-24T20:07:20.240Z,97708.73
2019-01-24T20:09:57.267Z,97713.47
2019-01-24T20:12:37.807Z,97714.42
2019-01-24T20:15:12.954Z,97717.31
2019-01-24T20:18:09.050Z,97727.08
2019-01-24T20:26:53.788Z,97728.27
2019-01-24T20:29:45.009Z,97738.09
2019-01-24T20:35:39.254Z,97737.98
2019-01-24T20:38:47.935Z,97741.39
2019-01-24T20:44:46.007Z,97750.42
2019-01-24T20:47:17.851Z,97753.41
2019-01-24T20:50:10.265Z,97754.73
2019-01-24T20:52:42.150Z,97760.75
2019-01-24T20:55:13.207Z,97765.88
2019-01-24T20:57:44.140Z,97760.66
2019-01-24T21:00:33.934Z,97764.98
2019-01-24T21:03:04.615Z,97666.90
2019-01-24T21:05:54.021Z,97765.73
2019-01-24T21:08:45.372Z,97770.00
2019-01-24T21:11:35.633Z,97770.00
2019-01-24T21:14:25.121Z,97775.13
2019-01-24T21:17:15.196Z,97769.96
2019-01-24T21:19:48.492Z,97772.99
2019-01-24T21:22:38.300Z,97778.45
2019-01-24T21:25:27.688Z,97780.63
2019-01-24T21:28:20.832Z,97778.45
2019-01-24T21:31:12.383Z,97781.48
2019-01-24T21:34:02.186Z,97786.55
2019-01-24T21:36:53.865Z,97789.55
2019-01-24T21:39:27.412Z,97789.16
2019-01-24T21:42:00.146Z,97791.27
2019-01-24T21:44:45.489Z,97790.34
2019-01-24T21:47:24.303Z,97787.69
2019-01-24T21:49:57.392Z,97786.73
2019-01-24T21:52:27.661Z,97780.86
2019-01-24T21:58:15.722Z,97782.72
2019-01-24T22:01:05.672Z,97785.66
2019-01-24T22:03:55.303Z,97793.34
2019-01-24T22:06:29.652Z,97788.27
2019-01-24T22:09:19.340Z,97796.70
2019-01-24T22:15:04.489Z,97795.42
2019-01-24T22:17:45.437Z,97795.95
2019-01-24T22:20:16.411Z,97799.08
2019-01-24T22:23:18.411Z,97798.52
2019-01-24T22:25:51.049Z,97798.94
2019-01-24T22:28:23.461Z,97794.34
2019-01-24T22:31:12.798Z,97804.11
2019-01-24T22:33:43.147Z,97805.77
2019-01-24T22:36:15.281Z,97804.87
2019-01-24T22:39:09.825Z,97803.58
2019-01-24T22:41:59.563Z,97810.84
2019-01-24T22:44:51.242Z,97802.27
2019-01-24T22:47:42.238Z,97800.22
2019-01-24T22:50:31.954Z,97801.50
2019-01-24T22:53:21.266Z,97801.08
2019-01-24T22:56:22.873Z,97802.36
2019-01-24T22:59:28.512Z,97802.45
2019-01-24T23:02:50.347Z,97794.77
2019-01-24T23:05:27.944Z,97798.62
2019-01-24T23:11:28.596Z,97800.66
2019-01-24T23:14:36.817Z,97802.02
2019-01-24T23:17:26.327Z,97797.71
2019-01-24T23:20:36.070Z,97798.52
2019-01-24T23:23:25.825Z,97800.69
2019-01-24T23:26:35.728Z,97800.93
2019-01-24T23:32:22.267Z,97809.98
2019-01-24T23:35:13.888Z,97801.98
2019-01-24T23:38:05.860Z,97804.55
2019-01-24T23:43:32.840Z,97810.61
2019-01-24T23:46:22.391Z,97816.63
2019-01-24T23:49:15.049Z,97817.53
2019-01-24T23:52:06.826Z,97817.02
2019-01-24T23:54:56.392Z,97818.77
2019-01-24T23:57:46.096Z,97819.67
